Accueil
METAR-TAF:

METAR-TAF

Aéroports :

Agen, France

Aéroport Agen-La Garenne

latitude: 44-11N, longitude: 000-36E, altitude: 61 m

Observation

Le bulletin a été fait il y a 26 minutes, à 10:30 UTC
Vent 7 kt de est
Température 7°C
Humidité 100%
Pression 1013 hPa
Visibilité: 0600 m
brouillard

METAR: LFBA 221030Z AUTO 10007KT 0600 R29/1000U FG VV/// 07/07 Q1013 BECMG CAVOK

Heure: 11:56 (10:56 UTC)

Prévision

Le bulletin a été fait il y a 2 heures et 56 minutes, à 08:00 UTC
Prévision valable du 22 à 09 UTC au 22 à 18 UTC
Vent 8 kt de est/sud-est
Visibilité: 0600 m
brouillard
A partir de 22 à 0930 UTC
Vent 8 kt de est/sud-est
Visibilité: 1500 m
Nuages fragmentés à une hauteur de 300 ft
brume
A partir de 22 à 1100 UTC
Vent 12 kt de est/sud-est
Visibilité 10 km ou plus
pas de nuages en-dessous de 1500 mètres et pas de cumulonimbus.

TAF: LFBA 220800Z 2209/2218 11008KT 0600 FG VV/// FM220930 11008KT 1500 BR BKN003 FM221100 12012KT CAVOK

Observations et prévisions météorologiques de plus de 4000 aéroports (messages METAR et TAF).

Les stations disponibles sont représentées par des disques jaunes et rouges sur la carte.

Passer la souris dessus pour voir le nom de la station.

Cliquer dessus pour voir les observations et prévisions météorologiques.

Pour changer de carte: cliquez sur les boutons verts avec une croix noire pour zoomer, sur le bouton vert avec un tiret pour effectuer un zoom arrière, ou sur les flèches vertes pour les cartes adjacentes.


METAR-TAF: